Time;durP1;ratioP1;P1;durP2;ratioP2;P2;SDS_P1;SDS_P2;PMS_P1;PMS_P2;Temp;Humidity;BMP_temperature;BMP_pressure;BME280_temperature;BME280_humidity;BME280_pressure;Samples;Min_cycle;Max_cycle;Signal;HPM_P1;HPM_P2
2023/12/07 00:01:03;;;;;;;13.95;12.32;;;1.60;99.90;;;;;;5084238;28;20058;-44
2023/12/07 00:03:29;;;;;;;14.25;11.43;;;1.60;99.90;;;;;;5083594;28;20081;-45
2023/12/07 00:05:55;;;;;;;17.67;12.38;;;1.50;99.90;;;;;;5081429;28;20074;-46
2023/12/07 00:08:21;;;;;;;15.85;11.20;;;1.60;99.90;;;;;;5087931;28;20040;-45
2023/12/07 00:10:46;;;;;;;16.13;12.73;;;1.30;99.90;;;;;;5086946;28;20036;-44
2023/12/07 00:13:12;;;;;;;15.63;12.30;;;;;;;;;;5086261;28;20401;-45
2023/12/07 00:15:38;;;;;;;17.35;12.10;;;;;;;;;;5089291;28;20056;-45
2023/12/07 00:18:04;;;;;;;17.40;12.15;;;;;;;;;;5090329;28;20367;-44
2023/12/07 00:20:30;;;;;;;18.08;12.38;;;;;;;;;;5091493;28;20043;-44
2023/12/07 00:22:56;;;;;;;15.88;12.20;;;1.20;99.90;;;;;;5091321;28;20397;-44
2023/12/07 00:25:22;;;;;;;18.17;12.88;;;1.20;99.90;;;;;;5090296;28;20062;-44
2023/12/07 00:27:48;;;;;;;15.80;12.30;;;1.00;99.90;;;;;;5090290;28;20047;-45
2023/12/07 00:30:14;;;;;;;19.67;13.60;;;0.90;99.90;;;;;;5089751;28;20084;-45
2023/12/07 00:32:43;;;;;;;18.60;12.75;;;1.90;99.90;;;;;;5089470;28;20123;-45
2023/12/07 00:35:10;;;;;;;18.38;12.95;;;1.00;99.90;;;;;;5089494;28;20135;-46
2023/12/07 00:37:35;;;;;;;18.27;13.52;;;0.90;99.90;;;;;;5091275;28;20035;-47
2023/12/07 00:40:01;;;;;;;17.67;12.95;;;0.80;99.90;;;;;;5089756;28;20059;-46
2023/12/07 00:42:27;;;;;;;19.75;13.52;;;0.80;99.90;;;;;;5089346;28;20070;-46
2023/12/07 00:44:53;;;;;;;16.35;13.27;;;0.70;99.90;;;;;;5088750;28;20048;-44
2023/12/07 00:47:19;;;;;;;20.75;14.57;;;0.60;99.90;;;;;;5086201;28;20028;-43
2023/12/07 00:49:44;;;;;;;19.27;13.73;;;0.70;99.90;;;;;;5088550;28;20034;-45
2023/12/07 00:52:10;;;;;;;18.90;13.43;;;0.60;99.90;;;;;;5083700;28;20362;-44
2023/12/07 00:54:36;;;;;;;19.17;13.95;;;0.60;99.90;;;;;;5081893;28;20041;-46
2023/12/07 00:57:01;;;;;;;22.27;14.20;;;0.60;99.90;;;;;;5087255;28;20056;-46
2023/12/07 00:59:27;;;;;;;19.60;15.15;;;0.60;99.90;;;;;;5086190;28;20059;-43
2023/12/07 01:01:52;;;;;;;23.30;15.75;;;0.60;99.90;;;;;;5086129;28;20066;-45
2023/12/07 01:04:18;;;;;;;25.08;15.32;;;0.60;99.90;;;;;;5086818;28;20109;-44
2023/12/07 01:06:43;;;;;;;21.48;16.02;;;0.50;99.90;;;;;;5087596;28;20432;-45
2023/12/07 01:09:13;;;;;;;23.38;16.95;;;0.50;99.90;;;;;;5087603;28;20044;-44
2023/12/07 01:11:40;;;;;;;25.30;16.70;;;0.60;99.90;;;;;;5087350;28;20400;-45
2023/12/07 01:14:05;;;;;;;24.50;17.58;;;0.70;99.90;;;;;;5083669;28;20115;-44
2023/12/07 01:16:31;;;;;;;30.10;18.52;;;0.70;99.90;;;;;;5083531;28;20107;-43
2023/12/07 01:18:57;;;;;;;27.02;18.38;;;0.70;99.90;;;;;;5083612;28;20187;-45
2023/12/07 01:21:23;;;;;;;29.00;18.73;;;0.80;99.90;;;;;;5064416;28;20110;-43
2023/12/07 01:23:49;;;;;;;28.85;18.67;;;0.80;99.90;;;;;;5080490;28;20072;-45
2023/12/07 01:26:14;;;;;;;27.65;18.17;;;0.80;99.90;;;;;;5081643;28;20123;-44
2023/12/07 01:28:40;;;;;;;29.30;18.25;;;0.90;99.90;;;;;;5080462;28;21527;-48
2023/12/07 01:31:06;;;;;;;27.10;17.60;;;0.80;99.90;;;;;;5079552;28;20048;-43
2023/12/07 01:33:31;;;;;;;28.48;18.40;;;0.70;99.90;;;;;;5085754;28;20082;-44
2023/12/07 01:35:57;;;;;;;32.28;18.58;;;0.90;99.90;;;;;;5084792;28;20093;-46
2023/12/07 01:38:22;;;;;;;29.60;19.20;;;0.80;99.90;;;;;;5085721;28;20098;-45
2023/12/07 01:40:48;;;;;;;36.25;19.65;;;0.80;99.90;;;;;;5069179;28;20408;-43
2023/12/07 01:43:14;;;;;;;29.02;18.92;;;0.90;99.90;;;;;;5067274;28;20076;-44
2023/12/07 01:45:40;;;;;;;31.13;18.63;;;0.70;99.90;;;;;;5082564;28;20131;-44
2023/12/07 01:48:06;;;;;;;32.15;19.55;;;0.90;99.90;;;;;;5083871;28;20090;-44
2023/12/07 01:50:33;;;;;;;29.80;18.95;;;0.80;99.90;;;;;;5092000;28;20096;-46
2023/12/07 01:53:02;;;;;;;28.35;19.15;;;0.70;99.90;;;;;;5068003;28;20127;-45
2023/12/07 01:55:29;;;;;;;25.35;17.98;;;0.80;99.90;;;;;;5090182;28;20039;-43
2023/12/07 01:57:55;;;;;;;28.85;18.77;;;0.70;99.90;;;;;;5088105;28;20051;-44
2023/12/07 02:00:21;;;;;;;30.88;18.60;;;0.70;99.90;;;;;;5090569;28;20039;-45
2023/12/07 02:02:47;;;;;;;31.20;19.60;;;0.80;99.90;;;;;;5087668;28;20039;-43
2023/12/07 02:05:14;;;;;;;36.47;21.25;;;0.90;99.90;;;;;;5089399;28;20036;-43
2023/12/07 02:07:41;;;;;;;31.30;19.45;;;0.90;99.90;;;;;;5088070;28;20536;-46
2023/12/07 02:10:08;;;;;;;35.25;20.10;;;0.90;99.90;;;;;;5086733;28;20478;-45
2023/12/07 02:12:34;;;;;;;37.10;21.15;;;0.80;99.90;;;;;;5087320;28;20049;-44
2023/12/07 02:15:02;;;;;;;31.88;20.17;;;1.00;99.90;;;;;;5069078;28;20048;-47
2023/12/07 02:17:38;;;;;;;33.35;20.05;;;1.00;99.90;;;;;;5085838;28;20044;-46
2023/12/07 02:20:16;;;;;;;34.55;20.85;;;1.00;99.90;;;;;;5087000;28;20127;-45
2023/12/07 02:22:54;;;;;;;27.02;18.90;;;0.90;99.90;;;;;;5086037;28;20095;-44
2023/12/07 02:25:29;;;;;;;31.38;20.15;;;0.90;99.90;;;;;;5085953;28;20488;-46
2023/12/07 02:27:55;;;;;;;29.40;19.08;;;1.00;99.90;;;;;;5085980;28;20084;-45
2023/12/07 02:30:20;;;;;;;30.60;19.05;;;0.90;99.90;;;;;;5086353;28;20090;-45
2023/12/07 02:32:46;;;;;;;30.83;19.42;;;1.00;99.90;;;;;;5088387;28;20059;-44
2023/12/07 02:35:13;;;;;;;30.75;19.40;;;1.00;99.90;;;;;;5086941;28;20131;-46
2023/12/07 02:37:47;;;;;;;32.55;18.40;;;0.90;99.90;;;;;;5087065;28;20046;-47
2023/12/07 02:40:20;;;;;;;28.30;19.10;;;1.00;99.90;;;;;;5086296;28;20477;-43
2023/12/07 02:42:47;;;;;;;28.58;19.25;;;0.70;99.90;;;;;;5084336;28;20085;-45
2023/12/07 02:45:13;;;;;;;31.85;17.95;;;0.80;99.90;;;;;;5087411;28;20036;-45
2023/12/07 02:47:39;;;;;;;28.25;18.15;;;0.70;99.90;;;;;;5087785;28;20035;-47
2023/12/07 02:50:06;;;;;;;28.50;18.17;;;0.50;99.90;;;;;;5085220;28;20044;-47
2023/12/07 02:52:32;;;;;;;27.08;17.45;;;0.60;99.90;;;;;;5085974;28;20043;-45
2023/12/07 02:54:57;;;;;;;24.75;16.90;;;0.60;99.90;;;;;;5089153;28;20055;-44
2023/12/07 02:57:23;;;;;;;28.73;17.83;;;0.50;99.90;;;;;;5091664;28;20401;-44
2023/12/07 02:59:49;;;;;;;26.77;18.00;;;0.40;99.90;;;;;;5082358;28;20044;-44
2023/12/07 03:02:14;;;;;;;26.63;18.13;;;0.30;99.90;;;;;;5089014;28;20044;-44
2023/12/07 03:04:40;;;;;;;26.67;17.95;;;0.40;99.90;;;;;;5088163;28;20036;-44
2023/12/07 03:07:06;;;;;;;26.33;16.73;;;0.20;99.90;;;;;;5087387;28;20445;-45
2023/12/07 03:09:31;;;;;;;27.13;16.33;;;0.30;99.90;;;;;;5071434;28;20044;-45
2023/12/07 03:11:57;;;;;;;22.65;15.57;;;0.10;99.90;;;;;;5084706;28;20072;-45
2023/12/07 03:14:23;;;;;;;25.98;17.05;;;0.20;99.90;;;;;;5084813;28;20051;-46
2023/12/07 03:16:48;;;;;;;25.13;17.23;;;0.20;99.90;;;;;;5084228;28;20028;-47
2023/12/07 03:19:14;;;;;;;24.92;16.58;;;0.10;99.90;;;;;;5067939;28;20044;-43
2023/12/07 03:21:43;;;;;;;25.98;16.25;;;-0.10;99.90;;;;;;5082906;28;20115;-44
2023/12/07 03:24:09;;;;;;;23.10;16.42;;;0.00;99.90;;;;;;5082953;28;20041;-44
2023/12/07 03:26:35;;;;;;;26.25;16.30;;;0.00;99.90;;;;;;5086384;28;20047;-43
2023/12/07 03:29:01;;;;;;;28.15;17.83;;;-0.10;99.90;;;;;;5065972;28;20384;-44
2023/12/07 03:31:27;;;;;;;23.58;16.70;;;0.00;99.90;;;;;;5081975;28;20056;-46
2023/12/07 03:33:54;;;;;;;26.77;16.77;;;0.00;99.90;;;;;;5085667;28;20552;-46
2023/12/07 03:36:19;;;;;;;23.63;16.52;;;-0.20;99.90;;;;;;5087517;28;20043;-46
2023/12/07 03:38:45;;;;;;;26.63;16.70;;;-0.10;99.90;;;;;;5084836;28;20109;-43
2023/12/07 03:41:11;;;;;;;28.48;16.98;;;-0.30;99.90;;;;;;5085530;28;20040;-45
2023/12/07 03:43:36;;;;;;;22.80;15.65;;;-0.30;99.90;;;;;;5085608;28;20118;-45
2023/12/07 03:46:08;;;;;;;24.38;16.48;;;-0.20;99.90;;;;;;5084335;28;20028;-46
2023/12/07 03:48:34;;;;;;;26.60;17.02;;;-0.20;99.90;;;;;;5086049;28;20040;-43
2023/12/07 03:51:01;;;;;;;26.83;16.33;;;-0.20;99.90;;;;;;5085319;28;20393;-44
2023/12/07 03:53:27;;;;;;;25.65;16.80;;;-0.20;99.90;;;;;;5083391;28;20394;-43
2023/12/07 03:55:53;;;;;;;23.77;16.92;;;-0.30;99.90;;;;;;5082774;28;20388;-45
2023/12/07 03:58:19;;;;;;;25.95;17.35;;;-0.30;99.90;;;;;;5067085;28;20193;-43
2023/12/07 04:00:45;;;;;;;28.45;17.38;;;-0.40;99.90;;;;;;5089131;28;20097;-46
2023/12/07 04:03:11;;;;;;;25.08;16.20;;;-0.30;99.90;;;;;;5085277;28;20055;-44
2023/12/07 04:05:37;;;;;;;27.63;17.55;;;-0.40;99.90;;;;;;5087468;28;20040;-43
2023/12/07 04:08:05;;;;;;;27.95;18.38;;;-0.40;99.90;;;;;;5085783;28;20140;-44
2023/12/07 04:10:31;;;;;;;31.77;17.58;;;-0.40;99.90;;;;;;5083116;28;20071;-43
2023/12/07 04:12:57;;;;;;;26.25;17.55;;;-0.30;99.90;;;;;;5083698;28;20608;-44
2023/12/07 04:15:22;;;;;;;33.70;18.35;;;-0.30;99.90;;;;;;5084281;28;20071;-43
2023/12/07 04:17:49;;;;;;;30.33;18.95;;;-0.40;99.90;;;;;;5082768;28;20043;-44
2023/12/07 04:20:14;;;;;;;30.67;18.08;;;-0.40;99.90;;;;;;5083202;28;20133;-47
2023/12/07 04:22:41;;;;;;;29.88;18.90;;;-0.30;99.90;;;;;;5081750;28;20040;-44
2023/12/07 04:25:07;;;;;;;39.38;20.70;;;-0.40;99.90;;;;;;5082607;28;20077;-45
2023/12/07 04:27:33;;;;;;;34.35;19.25;;;-0.30;99.90;;;;;;5085397;28;20057;-45
2023/12/07 04:29:59;;;;;;;35.50;19.88;;;-0.20;99.90;;;;;;5082576;28;20055;-44
2023/12/07 04:32:25;;;;;;;35.17;20.90;;;-0.20;99.90;;;;;;5082865;28;20040;-45
2023/12/07 04:34:51;;;;;;;39.03;21.17;;;0.00;99.90;;;;;;5081232;28;20139;-44
2023/12/07 04:37:17;;;;;;;39.67;21.15;;;0.00;99.90;;;;;;5083203;28;20138;-44
2023/12/07 04:39:43;;;;;;;38.35;21.70;;;-0.10;99.90;;;;;;5083962;28;20063;-44
2023/12/07 04:42:08;;;;;;;44.50;22.02;;;0.00;99.90;;;;;;5085917;28;20064;-45
2023/12/07 04:44:34;;;;;;;44.50;21.60;;;0.10;99.90;;;;;;5083587;28;20123;-45
2023/12/07 04:47:00;;;;;;;41.63;22.08;;;0.10;99.90;;;;;;5085602;28;20512;-44
2023/12/07 04:49:25;;;;;;;37.83;21.98;;;0.20;99.90;;;;;;5067838;28;20036;-43
2023/12/07 04:51:51;;;;;;;45.45;22.55;;;0.10;99.90;;;;;;5079150;28;20881;-46
2023/12/07 04:54:17;;;;;;;43.00;23.35;;;0.30;99.90;;;;;;5067229;28;20405;-44
2023/12/07 04:56:42;;;;;;;36.17;21.30;;;0.30;99.90;;;;;;5085153;28;20048;-45
2023/12/07 04:59:09;;;;;;;34.30;21.67;;;0.20;99.90;;;;;;5086687;28;20155;-44
2023/12/07 05:01:38;;;;;;;37.33;21.58;;;0.20;99.90;;;;;;5086047;28;20503;-45
2023/12/07 05:04:05;;;;;;;35.83;21.17;;;0.30;99.90;;;;;;5080581;28;20050;-44
2023/12/07 05:06:31;;;;;;;39.17;22.73;;;0.20;99.90;;;;;;5068780;28;20493;-44
2023/12/07 05:08:57;;;;;;;38.80;22.00;;;0.20;99.90;;;;;;5083778;28;20646;-43
2023/12/07 05:11:23;;;;;;;43.83;22.35;;;0.20;99.90;;;;;;5086302;28;20048;-45
2023/12/07 05:13:48;;;;;;;41.60;22.50;;;0.40;99.90;;;;;;5089498;28;20056;-44
2023/12/07 05:16:14;;;;;;;40.22;22.42;;;0.30;99.90;;;;;;5086327;28;20078;-45
2023/12/07 05:18:40;;;;;;;37.50;21.95;;;0.30;99.90;;;;;;5084388;28;20432;-44
2023/12/07 05:21:07;;;;;;;40.85;22.98;;;0.30;99.90;;;;;;5088427;28;20505;-45
2023/12/07 05:23:33;;;;;;;41.40;23.65;;;0.20;99.90;;;;;;5090740;28;20032;-44
2023/12/07 05:26:00;;;;;;;38.28;24.05;;;0.30;99.90;;;;;;5072990;28;20071;-45
2023/12/07 05:28:26;;;;;;;36.95;22.77;;;0.30;99.90;;;;;;5088108;28;20105;-44
2023/12/07 05:30:52;;;;;;;38.70;23.13;;;0.30;99.90;;;;;;5085270;28;20113;-45
2023/12/07 05:33:19;;;;;;;37.88;22.67;;;0.20;99.90;;;;;;5088203;28;20438;-45
2023/12/07 05:35:45;;;;;;;39.53;23.40;;;0.20;99.90;;;;;;5090558;28;20048;-43
2023/12/07 05:38:11;;;;;;;36.92;22.52;;;0.30;99.90;;;;;;5086539;28;20066;-44
2023/12/07 05:40:36;;;;;;;41.50;24.55;;;0.20;99.90;;;;;;5086875;28;20044;-47
2023/12/07 05:43:02;;;;;;;38.28;23.88;;;0.30;99.90;;;;;;5085864;28;20048;-44
2023/12/07 05:45:28;;;;;;;46.15;25.73;;;0.40;99.90;;;;;;5083353;28;20233;-47
2023/12/07 05:47:54;;;;;;;43.90;24.85;;;0.20;99.90;;;;;;5066332;28;20394;-45
2023/12/07 05:50:20;;;;;;;43.67;26.63;;;0.30;99.90;;;;;;5087640;28;20040;-45
2023/12/07 05:52:46;;;;;;;44.05;24.67;;;0.40;99.90;;;;;;5081032;28;20044;-44
2023/12/07 05:55:12;;;;;;;39.83;24.77;;;0.30;99.90;;;;;;5083765;28;20509;-47
2023/12/07 05:57:37;;;;;;;42.90;27.25;;;0.40;99.90;;;;;;5066732;28;20036;-44
2023/12/07 06:00:07;;;;;;;44.33;26.92;;;0.50;99.90;;;;;;5084353;28;20417;-45
2023/12/07 06:02:33;;;;;;;45.72;26.63;;;0.50;99.90;;;;;;5067437;28;20064;-46
2023/12/07 06:04:58;;;;;;;46.20;28.33;;;0.60;99.90;;;;;;5077257;28;20062;-45
2023/12/07 06:07:24;;;;;;;43.72;26.33;;;0.40;99.90;;;;;;5076124;28;20491;-45
2023/12/07 06:09:49;;;;;;;42.38;26.20;;;0.40;99.90;;;;;;5080504;28;20036;-47
2023/12/07 06:12:15;;;;;;;47.17;27.50;;;0.60;99.90;;;;;;5084401;28;20036;-43
2023/12/07 06:14:41;;;;;;;47.10;27.98;;;0.60;99.90;;;;;;5082434;28;20040;-44
2023/12/07 06:17:08;;;;;;;47.65;28.13;;;0.40;99.90;;;;;;5083208;28;20048;-44
2023/12/07 06:19:33;;;;;;;46.35;26.67;;;0.50;99.90;;;;;;5079605;28;20075;-48
2023/12/07 06:21:59;;;;;;;45.90;26.88;;;0.40;99.90;;;;;;5080706;28;20047;-45
2023/12/07 06:24:25;;;;;;;46.75;27.00;;;0.50;99.90;;;;;;5081631;28;20353;-45
2023/12/07 06:26:52;;;;;;;43.45;27.40;;;0.40;99.90;;;;;;5082464;28;20044;-45
2023/12/07 06:29:18;;;;;;;47.45;26.73;;;0.40;99.90;;;;;;5081418;28;21439;-43
2023/12/07 06:31:44;;;;;;;44.78;27.00;;;0.60;99.90;;;;;;5082721;28;20054;-46
2023/12/07 06:34:10;;;;;;;48.88;27.77;;;0.60;99.90;;;;;;5066603;28;20032;-45
2023/12/07 06:36:36;;;;;;;45.17;27.38;;;0.60;99.90;;;;;;5088707;28;20491;-47
2023/12/07 06:39:05;;;;;;;46.22;27.45;;;0.50;99.90;;;;;;5084263;28;20381;-45
2023/12/07 06:41:31;;;;;;;47.95;26.48;;;0.50;99.90;;;;;;5088498;28;20465;-48
2023/12/07 06:43:57;;;;;;;46.83;27.67;;;0.70;99.90;;;;;;5085474;28;20121;-44
2023/12/07 06:46:22;;;;;;;44.63;27.63;;;0.50;99.90;;;;;;5064667;28;20044;-44
2023/12/07 06:48:48;;;;;;;47.70;27.92;;;0.70;99.90;;;;;;5086848;28;20442;-44
2023/12/07 06:51:16;;;;;;;45.47;28.00;;;0.70;99.90;;;;;;5085182;28;20068;-44
2023/12/07 06:53:42;;;;;;;50.85;28.02;;;0.80;99.90;;;;;;5089840;28;20101;-44
2023/12/07 06:56:08;;;;;;;44.50;28.33;;;0.80;99.90;;;;;;5087072;28;20428;-44
2023/12/07 06:58:34;;;;;;;46.25;27.63;;;0.70;99.90;;;;;;5084926;28;20613;-44
2023/12/07 07:01:00;;;;;;;43.40;27.98;;;0.60;99.90;;;;;;5080367;28;20071;-44
2023/12/07 07:03:27;;;;;;;46.67;28.00;;;0.60;99.90;;;;;;5082849;28;20512;-45
2023/12/07 07:05:54;;;;;;;45.70;26.90;;;0.70;99.90;;;;;;5085058;28;20170;-44
2023/12/07 07:08:19;;;;;;;50.03;27.67;;;0.60;99.90;;;;;;5085069;28;20434;-45
2023/12/07 07:10:46;;;;;;;41.08;27.65;;;0.70;99.90;;;;;;5085974;28;20082;-45
2023/12/07 07:13:14;;;;;;;52.05;28.33;;;0.60;99.90;;;;;;5066798;28;20070;-44
2023/12/07 07:15:42;;;;;;;;;;;0.60;99.90;;;;;;5088971;28;20055;-44
2023/12/07 07:18:08;;;;;;;43.03;27.55;;;0.70;99.90;;;;;;5084997;28;21005;-44
2023/12/07 07:20:34;;;;;;;43.28;27.35;;;0.70;99.90;;;;;;5084135;28;20118;-45
2023/12/07 07:22:59;;;;;;;43.95;26.75;;;0.70;99.90;;;;;;5087560;28;20127;-45
2023/12/07 07:25:25;;;;;;;49.03;28.20;;;0.50;99.90;;;;;;5084595;28;20445;-45
2023/12/07 07:27:52;;;;;;;45.90;29.27;;;0.50;99.90;;;;;;5084421;28;20052;-44
2023/12/07 07:30:17;;;;;;;45.15;30.27;;;0.50;99.90;;;;;;5083220;28;20101;-44
2023/12/07 07:32:43;;;;;;;44.25;28.33;;;0.60;99.90;;;;;;5088735;28;20430;-46
2023/12/07 07:35:11;;;;;;;48.83;28.90;;;0.60;99.90;;;;;;5082231;28;20075;-44
2023/12/07 07:37:37;;;;;;;40.80;26.38;;;0.40;99.90;;;;;;5067726;28;20342;-48
2023/12/07 07:40:06;;;;;;;44.05;26.73;;;0.40;99.90;;;;;;5082804;28;20102;-44
2023/12/07 07:42:32;;;;;;;41.40;26.13;;;0.30;99.90;;;;;;5085190;28;20065;-44
2023/12/07 07:44:58;;;;;;;50.65;28.33;;;0.30;99.90;;;;;;5080852;28;20084;-46
2023/12/07 07:47:24;;;;;;;54.25;29.63;;;0.40;99.90;;;;;;5080714;28;20456;-46
2023/12/07 07:49:49;;;;;;;52.22;30.35;;;0.40;99.90;;;;;;5080921;28;20032;-48
2023/12/07 07:52:15;;;;;;;45.28;27.95;;;0.30;99.90;;;;;;5084864;28;20036;-44
2023/12/07 07:54:41;;;;;;;51.35;29.60;;;0.20;99.90;;;;;;5084219;28;20040;-48
2023/12/07 07:57:07;;;;;;;48.40;28.35;;;;;;;;;;5085189;28;20814;-45
2023/12/07 07:59:32;;;;;;;45.05;26.70;;;0.30;99.90;;;;;;5088233;28;20048;-45
2023/12/07 08:01:58;;;;;;;44.63;25.67;;;0.30;99.90;;;;;;5085929;28;20412;-45
2023/12/07 08:04:24;;;;;;;66.43;26.52;;;0.20;99.90;;;;;;5086168;28;20051;-45
2023/12/07 08:06:49;;;;;;;62.53;24.92;;;0.20;99.90;;;;;;5085701;28;20044;-48
2023/12/07 08:09:15;;;;;;;48.53;24.80;;;0.10;99.90;;;;;;5084978;28;20078;-44
2023/12/07 08:11:41;;;;;;;121.05;29.05;;;0.20;99.90;;;;;;5085762;28;20043;-48
2023/12/07 08:14:06;;;;;;;129.88;28.77;;;0.20;99.90;;;;;;5085593;28;20464;-43
2023/12/07 08:16:32;;;;;;;178.93;28.83;;;0.10;99.90;;;;;;5082709;28;20048;-45
2023/12/07 08:18:58;;;;;;;181.10;30.85;;;0.10;99.90;;;;;;5069896;28;20043;-47
2023/12/07 08:21:25;;;;;;;205.57;30.85;;;0.20;99.90;;;;;;5088076;28;20393;-45
2023/12/07 08:23:51;;;;;;;167.98;29.02;;;0.20;99.90;;;;;;5089136;28;20445;-45
2023/12/07 08:26:17;;;;;;;202.65;28.40;;;0.20;99.90;;;;;;5086662;28;20135;-44
2023/12/07 08:28:43;;;;;;;222.73;31.02;;;0.20;99.90;;;;;;5089325;28;20135;-45
2023/12/07 08:31:10;;;;;;;212.55;30.48;;;0.20;99.90;;;;;;5084815;28;20126;-44
2023/12/07 08:33:39;;;;;;;208.90;32.90;;;0.20;99.90;;;;;;5084646;28;20455;-45
2023/12/07 08:36:05;;;;;;;128.50;27.48;;;0.20;99.90;;;;;;5087960;28;20454;-46
2023/12/07 08:38:32;;;;;;;143.75;27.95;;;0.40;99.90;;;;;;5064112;28;20032;-46
2023/12/07 08:40:58;;;;;;;159.52;28.95;;;0.30;99.90;;;;;;5087337;28;20074;-44
2023/12/07 08:43:24;;;;;;;184.10;28.52;;;0.40;99.90;;;;;;5084555;28;20112;-47
2023/12/07 08:45:53;;;;;;;330.20;36.67;;;0.40;99.90;;;;;;5089109;28;20443;-45
2023/12/07 08:48:22;;;;;;;254.80;33.90;;;0.20;99.90;;;;;;5089636;28;20048;-46
2023/12/07 08:50:47;;;;;;;153.77;27.95;;;0.50;99.90;;;;;;5086509;28;20032;-45
2023/12/07 08:53:13;;;;;;;228.55;32.00;;;0.40;99.90;;;;;;5089416;28;20044;-45
2023/12/07 08:55:39;;;;;;;209.88;30.45;;;0.40;99.90;;;;;;5087425;28;20054;-47
2023/12/07 08:58:05;;;;;;;110.63;28.63;;;0.40;99.90;;;;;;5084086;28;20417;-46
2023/12/07 09:00:34;;;;;;;109.20;26.08;;;0.30;99.90;;;;;;5084737;28;20040;-44
2023/12/07 09:03:01;;;;;;;79.95;25.10;;;0.30;99.90;;;;;;5087353;28;20047;-46
2023/12/07 09:05:27;;;;;;;149.68;31.80;;;0.40;99.90;;;;;;5090091;28;20040;-46
2023/12/07 09:07:53;;;;;;;89.95;27.10;;;0.30;99.90;;;;;;5078197;28;20043;-45
2023/12/07 09:10:19;;;;;;;180.35;30.77;;;0.40;99.90;;;;;;5090156;28;20378;-46
2023/12/07 09:12:45;;;;;;;169.13;30.42;;;0.40;99.90;;;;;;5090678;28;20457;-46
2023/12/07 09:15:11;;;;;;;123.20;28.23;;;0.30;99.90;;;;;;5088762;28;20125;-47
2023/12/07 09:17:38;;;;;;;97.28;27.75;;;0.40;99.90;;;;;;5086511;28;20048;-49
2023/12/07 09:20:06;;;;;;;225.70;38.05;;;0.30;99.90;;;;;;5090387;28;20059;-48
2023/12/07 09:22:32;;;;;;;;;;;0.40;99.90;;;;;;5095088;28;20115;-47
2023/12/07 09:24:58;;;;;;;151.38;33.22;;;0.40;99.90;;;;;;5089609;28;20501;-48
2023/12/07 09:27:24;;;;;;;90.13;30.10;;;0.30;99.90;;;;;;5092016;28;20384;-48
2023/12/07 09:29:51;;;;;;;227.82;38.53;;;0.50;99.90;;;;;;5090508;28;20044;-49
2023/12/07 09:32:16;;;;;;;182.45;35.95;;;0.50;99.90;;;;;;5089570;28;20449;-46
2023/12/07 09:34:42;;;;;;;177.57;34.50;;;0.60;99.90;;;;;;5084159;28;20132;-45
2023/12/07 09:37:09;;;;;;;165.75;35.28;;;0.60;99.90;;;;;;5073996;28;20040;-45
2023/12/07 09:39:35;;;;;;;186.73;38.03;;;0.60;99.90;;;;;;5091510;28;20055;-45
2023/12/07 09:42:01;;;;;;;123.07;33.33;;;0.40;99.90;;;;;;5081194;28;20044;-46
2023/12/07 09:44:27;;;;;;;120.47;34.83;;;0.50;99.90;;;;;;5091316;28;20058;-45
2023/12/07 09:46:53;;;;;;;165.80;39.58;;;0.60;99.90;;;;;;5087461;28;20111;-44
2023/12/07 09:49:18;;;;;;;113.70;33.28;;;0.60;99.90;;;;;;5089396;28;20468;-44
2023/12/07 09:51:46;;;;;;;142.27;34.38;;;0.70;99.90;;;;;;5088579;28;20048;-45
2023/12/07 09:54:12;;;;;;;159.63;37.30;;;0.70;99.90;;;;;;5090701;28;20111;-44
2023/12/07 09:56:37;;;;;;;121.40;36.17;;;0.70;99.90;;;;;;5078468;28;20415;-45
2023/12/07 09:59:03;;;;;;;138.30;36.55;;;0.70;99.90;;;;;;5093995;28;20044;-45
2023/12/07 10:01:30;;;;;;;135.88;34.97;;;0.60;99.90;;;;;;5092756;28;20039;-46
2023/12/07 10:04:25;;;;;;;121.03;33.67;;;0.80;99.90;;;;;;5093638;28;20040;-45
2023/12/07 10:06:52;;;;;;;137.25;31.60;;;0.60;99.90;;;;;;5094674;28;20054;-45
2023/12/07 10:09:21;;;;;;;97.55;29.92;;;0.60;99.90;;;;;;5069114;28;20131;-47
2023/12/07 10:11:48;;;;;;;147.73;36.33;;;0.70;99.90;;;;;;5074326;28;20040;-45
2023/12/07 10:14:14;;;;;;;99.90;30.77;;;0.90;99.90;;;;;;5089598;28;20165;-45
2023/12/07 10:16:55;;;;;;;94.53;30.00;;;0.80;99.90;;;;;;5093002;28;20047;-45
2023/12/07 10:19:24;;;;;;;157.35;33.65;;;0.90;99.90;;;;;;5093513;28;20054;-46
2023/12/07 10:21:51;;;;;;;146.55;33.50;;;0.90;99.90;;;;;;5094372;28;20036;-45
2023/12/07 10:24:22;;;;;;;148.67;30.73;;;0.90;99.90;;;;;;5091605;28;20108;-44
2023/12/07 10:26:49;;;;;;;240.48;37.80;;;0.70;99.90;;;;;;5092639;28;20051;-44
2023/12/07 10:29:18;;;;;;;145.00;30.10;;;0.70;99.90;;;;;;5093868;28;20067;-45
2023/12/07 10:31:44;;;;;;;;;;;0.80;99.90;;;;;;5090458;28;20141;-46
2023/12/07 10:34:09;;;;;;;99.78;27.52;;;0.80;99.90;;;;;;5092928;28;19924;-45
2023/12/07 10:36:35;;;;;;;112.38;28.75;;;0.80;99.90;;;;;;5092815;28;20044;-45
2023/12/07 10:39:01;;;;;;;123.30;30.20;;;1.00;99.90;;;;;;5089815;28;20044;-46
2023/12/07 10:41:27;;;;;;;111.97;29.13;;;1.20;99.90;;;;;;5093745;28;20119;-45
2023/12/07 10:43:56;;;;;;;154.50;33.05;;;1.00;99.90;;;;;;5081545;28;20052;-45
2023/12/07 10:46:22;;;;;;;121.30;28.92;;;1.10;99.90;;;;;;5089602;28;20063;-45
2023/12/07 10:48:51;;;;;;;125.25;29.48;;;1.10;99.90;;;;;;5093214;28;20133;-46
2023/12/07 10:51:45;;;;;;;178.43;32.53;;;1.20;99.90;;;;;;5092487;28;20130;-45
2023/12/07 10:54:16;;;;;;;104.63;30.92;;;1.20;99.90;;;;;;5089088;28;20059;-45
2023/12/07 10:56:46;;;;;;;137.70;32.95;;;1.30;99.90;;;;;;5092282;28;20036;-44
2023/12/07 10:59:13;;;;;;;136.80;32.65;;;1.00;99.90;;;;;;5092153;28;20036;-44
2023/12/07 11:01:43;;;;;;;123.32;33.80;;;1.20;99.90;;;;;;5088508;28;20528;-47
2023/12/07 11:04:14;;;;;;;105.47;30.75;;;1.10;99.90;;;;;;5092206;28;20044;-45
2023/12/07 11:06:41;;;;;;;139.07;35.30;;;1.30;99.90;;;;;;5091858;28;20393;-45
2023/12/07 11:09:12;;;;;;;152.70;37.22;;;1.50;99.90;;;;;;5092441;28;20047;-45
2023/12/07 11:11:44;;;;;;;105.72;33.70;;;1.30;99.90;;;;;;5088679;28;20040;-46
2023/12/07 11:14:14;;;;;;;105.90;30.90;;;1.30;99.90;;;;;;5089226;28;20040;-46
2023/12/07 11:16:46;;;;;;;107.05;33.17;;;1.20;99.90;;;;;;5089273;28;20075;-45
2023/12/07 11:19:44;;;;;;;120.13;35.72;;;1.30;99.90;;;;;;5092392;28;20044;-45
2023/12/07 11:22:11;;;;;;;104.30;31.17;;;1.50;99.90;;;;;;5089601;28;20059;-45
2023/12/07 11:24:37;;;;;;;77.03;32.53;;;1.20;99.90;;;;;;5091338;28;20478;-46
2023/12/07 11:27:03;;;;;;;104.88;33.78;;;1.40;99.90;;;;;;5092353;28;20028;-45
2023/12/07 11:29:30;;;;;;;122.18;34.80;;;1.40;99.90;;;;;;5087163;28;20445;-45
2023/12/07 11:32:06;;;;;;;92.80;34.95;;;1.60;99.90;;;;;;5093273;28;20044;-44
2023/12/07 11:34:42;;;;;;;98.47;33.85;;;1.40;99.90;;;;;;5089948;28;20532;-44
2023/12/07 11:37:09;;;;;;;160.20;35.55;;;1.40;99.90;;;;;;5087383;28;20440;-44
2023/12/07 11:39:43;;;;;;;118.68;35.13;;;1.50;99.90;;;;;;5090658;28;20532;-44
2023/12/07 11:42:15;;;;;;;135.65;36.30;;;1.50;99.90;;;;;;5091792;28;20121;-45
2023/12/07 11:44:42;;;;;;;109.70;34.17;;;1.40;99.90;;;;;;5091350;28;20384;-47
2023/12/07 11:47:09;;;;;;;165.88;37.53;;;1.50;99.90;;;;;;5091684;28;20048;-44
2023/12/07 11:49:35;;;;;;;124.10;34.65;;;1.50;99.90;;;;;;5088649;28;20493;-44
2023/12/07 11:52:12;;;;;;;181.27;41.08;;;1.60;99.90;;;;;;5090872;28;20097;-47
2023/12/07 11:54:38;;;;;;;168.07;38.08;;;1.50;99.90;;;;;;5071621;28;20051;-44
2023/12/07 11:57:04;;;;;;;126.63;37.03;;;1.60;99.90;;;;;;5091669;28;20409;-44
2023/12/07 11:59:30;;;;;;;102.57;36.45;;;1.60;99.90;;;;;;5088830;28;20062;-44
2023/12/07 12:01:59;;;;;;;190.23;40.03;;;1.70;99.90;;;;;;5087922;28;20044;-45
2023/12/07 12:04:24;;;;;;;89.25;35.22;;;1.60;99.90;;;;;;5089803;28;20120;-48
2023/12/07 12:06:50;;;;;;;98.07;35.83;;;1.70;99.90;;;;;;5089995;28;20857;-44
2023/12/07 12:09:19;;;;;;;114.72;37.05;;;1.90;99.90;;;;;;5090142;28;20048;-44
2023/12/07 12:11:46;;;;;;;88.35;34.90;;;1.70;99.90;;;;;;5089961;28;20032;-47
2023/12/07 12:14:14;;;;;;;85.40;35.85;;;1.80;99.90;;;;;;5091085;28;20450;-43
2023/12/07 12:16:40;;;;;;;86.47;35.10;;;1.90;99.90;;;;;;5089500;28;20376;-46
2023/12/07 12:19:05;;;;;;;128.40;40.35;;;1.90;99.90;;;;;;5090883;28;20048;-44
2023/12/07 12:21:34;;;;;;;127.03;38.63;;;1.90;99.90;;;;;;5088787;28;20044;-43
2023/12/07 12:24:00;;;;;;;124.47;39.25;;;2.10;99.90;;;;;;5090996;28;20047;-44
2023/12/07 12:26:26;;;;;;;89.90;36.42;;;2.00;99.90;;;;;;5089292;28;20040;-48
2023/12/07 12:28:52;;;;;;;95.95;35.25;;;2.10;99.90;;;;;;5089991;28;20051;-44
2023/12/07 12:31:18;;;;;;;106.07;36.20;;;2.10;99.90;;;;;;5070438;28;20512;-46
2023/12/07 12:33:44;;;;;;;99.97;37.10;;;2.10;99.90;;;;;;5087892;28;20036;-45